This is the latest recevied weather packets stored in our database for station/object RA1AMO-10. If no packets are shown the sender has not sent any weather packets the latest 10 day(s).
| Time | Temp. | Humidity | Pressure | Rain* | Wind** | Luminosity | Snow |
|---|---|---|---|---|---|---|---|
| 1777701753 | 10° C | 57% | 1010.6 hPa | - | - | - | - |
| 1777700853 | 9.44° C | 57% | 1010.8 hPa | - | - | - | - |
| 1777699953 | 9.44° C | 58% | 1010.7 hPa | - | - | - | - |
| 1777699052 | 8.89° C | 58% | 1010.7 hPa | - | - | - | - |
| 1777698152 | 9.44° C | 59% | 1010.7 hPa | - | - | - | - |
| 1777697252 | 9.44° C | 59% | 1010.6 hPa | - | - | - | - |
| 1777696352 | 8.89° C | 59% | 1010.5 hPa | - | - | - | - |
| 1777695452 | 8.89° C | 60% | 1010.6 hPa | - | - | - | - |
| 1777694552 | 8.33° C | 61% | 1010.9 hPa | - | - | - | - |
| 1777693651 | 8.33° C | 63% | 1011 hPa | - | - | - | - |
| 1777692751 | 8.33° C | 63% | 1011 hPa | - | - | - | - |
| 1777691851 | 7.78° C | 64% | 1011.2 hPa | - | - | - | - |
| 1777690951 | 7.78° C | 65% | 1011.2 hPa | - | - | - | - |
| 1777690051 | 7.78° C | 65% | 1011.4 hPa | - | - | - | - |
| 1777689151 | 7.78° C | 66% | 1011.5 hPa | - | - | - | - |
| 1777673848 | 9.44° C | 57% | 1012.7 hPa | - | - | - | - |
| 1777672948 | 10° C | 57% | 1012.7 hPa | - | - | - | - |
| 1777671147 | 10° C | 57% | 1013 hPa | - | - | - | - |
| 1777670247 | 10° C | 57% | 1013.1 hPa | - | - | - | - |
| 1777669347 | 10° C | 58% | 1013.3 hPa | - | - | - | - |
| 1777668447 | 10° C | 57% | 1013.2 hPa | - | - | - | - |
| 1777667546 | 10° C | 58% | 1013.4 hPa | - | - | - | - |
| 1777665746 | 10° C | 59% | 1013.7 hPa | - | - | - | - |
| 1777664846 | 10° C | 59% | 1013.8 hPa | - | - | - | - |
| 1777663946 | 10.56° C | 58% | 1014 hPa | - | - | - | - |
* Rain since midnight (hover to see other rain measurements)
** Current wind speed in m/s (hover to see current wind gust speed)